createdAt,value
2018-04-30T00:01:25.448Z,11.39
2018-04-30T00:03:51.172Z,11.42
2018-04-30T00:06:16.900Z,11.43
2018-04-30T00:08:42.633Z,11.36
2018-04-30T00:11:08.357Z,11.36
2018-04-30T00:13:34.079Z,11.35
2018-04-30T00:15:59.816Z,11.29
2018-04-30T00:18:25.536Z,11.31
2018-04-30T00:20:51.277Z,11.30
2018-04-30T00:23:17.009Z,11.32
2018-04-30T00:25:42.753Z,11.28
2018-04-30T00:28:08.467Z,11.26
2018-04-30T00:30:34.210Z,11.27
2018-04-30T00:32:59.940Z,11.25
2018-04-30T00:35:25.701Z,11.25
2018-04-30T00:37:51.428Z,11.28
2018-04-30T00:40:17.177Z,11.17
2018-04-30T00:42:42.908Z,11.14
2018-04-30T00:45:08.644Z,11.13
2018-04-30T00:47:34.376Z,11.08
2018-04-30T00:50:00.100Z,10.99
2018-04-30T00:52:25.834Z,11.00
2018-04-30T00:54:58.674Z,10.93
2018-04-30T00:57:24.607Z,10.87
2018-04-30T00:59:50.272Z,10.83
2018-04-30T01:02:16.013Z,10.75
2018-04-30T01:04:41.743Z,10.76
2018-04-30T01:07:07.477Z,10.67
2018-04-30T01:09:33.244Z,10.62
2018-04-30T01:11:58.964Z,10.59
2018-04-30T01:14:24.721Z,10.62
2018-04-30T01:16:50.434Z,10.56
2018-04-30T01:19:16.152Z,10.53
2018-04-30T01:21:41.893Z,10.48
2018-04-30T01:24:07.618Z,10.38
2018-04-30T01:26:33.353Z,10.29
2018-04-30T01:28:59.068Z,10.25
2018-04-30T01:31:24.813Z,10.22
2018-04-30T01:33:50.541Z,10.22
2018-04-30T01:36:16.269Z,10.17
2018-04-30T01:38:41.983Z,10.15
2018-04-30T01:41:07.733Z,10.15
2018-04-30T01:43:33.451Z,10.15
2018-04-30T01:45:59.187Z,10.15
2018-04-30T01:48:24.916Z,10.17
2018-04-30T01:50:50.657Z,10.16
2018-04-30T01:53:16.377Z,10.16
2018-04-30T01:55:42.148Z,10.12
2018-04-30T01:58:07.868Z,10.13
2018-04-30T02:00:33.601Z,10.13
2018-04-30T02:02:59.349Z,10.13
2018-04-30T02:05:25.073Z,10.15
2018-04-30T02:07:50.807Z,10.15
2018-04-30T02:10:16.520Z,10.16
2018-04-30T02:12:42.260Z,10.15
2018-04-30T02:15:07.996Z,10.12
2018-04-30T02:17:33.736Z,10.19
2018-04-30T02:19:59.472Z,10.17
2018-04-30T02:22:25.227Z,10.15
2018-04-30T02:24:50.953Z,10.13
2018-04-30T02:27:16.675Z,10.12
2018-04-30T02:29:42.408Z,10.10
2018-04-30T02:32:08.133Z,10.08
2018-04-30T02:34:33.847Z,10.08
2018-04-30T02:36:59.577Z,10.08
2018-04-30T02:39:25.317Z,10.09
2018-04-30T02:41:51.045Z,10.09
2018-04-30T02:44:16.768Z,10.02
2018-04-30T02:46:42.503Z,10.02
2018-04-30T02:49:08.228Z,10.01
2018-04-30T02:51:33.972Z,10.00
2018-04-30T02:53:59.696Z,10.00
2018-04-30T02:56:25.529Z,9.96
2018-04-30T02:58:51.268Z,10.02
2018-04-30T03:01:16.993Z,9.97
2018-04-30T03:03:42.713Z,9.94
2018-04-30T03:06:08.440Z,9.99
2018-04-30T03:08:34.170Z,9.96
2018-04-30T03:10:59.904Z,9.95
2018-04-30T03:13:25.636Z,9.98
2018-04-30T03:15:51.356Z,10.00
2018-04-30T03:18:17.087Z,10.02
2018-04-30T03:20:42.808Z,10.08
2018-04-30T03:23:08.537Z,10.07
2018-04-30T03:25:34.269Z,10.10
2018-04-30T03:27:59.992Z,10.10
2018-04-30T03:30:25.727Z,10.12
2018-04-30T03:32:51.448Z,10.16
2018-04-30T03:35:17.172Z,10.19
2018-04-30T03:37:42.897Z,10.25
2018-04-30T03:40:08.619Z,10.27
2018-04-30T03:42:34.356Z,10.30
2018-04-30T03:45:00.071Z,10.30
2018-04-30T03:47:25.804Z,10.30
2018-04-30T03:49:51.527Z,10.31
2018-04-30T03:52:17.276Z,10.34
2018-04-30T03:54:43.004Z,10.39
2018-04-30T03:57:08.731Z,10.40
2018-04-30T03:59:34.447Z,10.42
2018-04-30T04:02:12.586Z,10.44
2018-04-30T04:04:50.524Z,10.46
2018-04-30T04:07:16.269Z,10.48
2018-04-30T04:09:41.991Z,10.50
2018-04-30T04:12:07.728Z,10.50
2018-04-30T04:14:33.461Z,10.55
2018-04-30T04:16:59.187Z,10.59
2018-04-30T04:19:24.920Z,10.61
2018-04-30T04:21:50.652Z,10.68
2018-04-30T04:24:16.397Z,10.72
2018-04-30T04:26:42.112Z,10.75
2018-04-30T04:29:07.850Z,10.79
2018-04-30T04:31:33.580Z,10.83
2018-04-30T04:33:59.312Z,10.87
2018-04-30T04:36:25.037Z,10.71
2018-04-30T04:38:50.768Z,10.58
2018-04-30T04:41:16.506Z,10.59
2018-04-30T04:43:42.229Z,10.68
2018-04-30T04:46:07.955Z,10.71
2018-04-30T04:48:33.683Z,10.77
2018-04-30T04:50:59.404Z,10.81
2018-04-30T04:53:25.141Z,10.86
2018-04-30T04:55:50.876Z,10.94
2018-04-30T04:58:16.613Z,11.04
2018-04-30T05:00:42.340Z,11.08
2018-04-30T05:03:08.057Z,11.14
2018-04-30T05:05:33.780Z,11.19
2018-04-30T05:07:59.502Z,11.29
2018-04-30T05:10:25.219Z,11.40
2018-04-30T05:12:50.943Z,11.48
2018-04-30T05:15:16.664Z,11.49
2018-04-30T05:17:42.405Z,11.49
2018-04-30T05:20:08.136Z,11.49
2018-04-30T05:22:33.852Z,11.51
2018-04-30T05:24:59.584Z,11.57
2018-04-30T05:27:25.297Z,11.74
2018-04-30T05:29:51.020Z,11.87
2018-04-30T05:32:16.736Z,11.99
2018-04-30T05:34:42.467Z,12.02
2018-04-30T05:37:08.196Z,12.19
2018-04-30T05:39:33.928Z,12.32
2018-04-30T05:41:59.654Z,12.40
2018-04-30T05:44:25.438Z,12.57
2018-04-30T05:46:51.126Z,12.63
2018-04-30T05:49:16.865Z,12.74
2018-04-30T05:51:42.588Z,12.74
2018-04-30T05:54:08.348Z,12.80
2018-04-30T05:56:34.075Z,12.84
2018-04-30T05:58:59.816Z,12.90
2018-04-30T06:01:25.637Z,12.99
2018-04-30T06:03:51.369Z,13.06
2018-04-30T06:06:17.096Z,13.23
2018-04-30T06:08:42.890Z,13.27
2018-04-30T06:11:08.568Z,13.46
2018-04-30T06:13:34.313Z,13.56
2018-04-30T06:16:00.043Z,13.58
2018-04-30T06:18:26.567Z,13.46
2018-04-30T06:20:52.284Z,13.49
2018-04-30T06:23:18.013Z,13.59
2018-04-30T06:25:43.767Z,13.69
2018-04-30T06:28:09.500Z,13.76
2018-04-30T06:30:35.216Z,13.78
2018-04-30T06:33:00.941Z,13.87
2018-04-30T06:35:26.676Z,13.96
2018-04-30T06:37:52.409Z,14.03
2018-04-30T06:40:18.144Z,14.05
2018-04-30T06:42:43.869Z,14.17
2018-04-30T06:45:09.620Z,14.30
2018-04-30T06:47:35.347Z,14.13
2018-04-30T06:50:01.086Z,14.00
2018-04-30T06:52:26.808Z,13.93
2018-04-30T06:54:52.539Z,13.82
2018-04-30T06:57:18.269Z,13.77
2018-04-30T06:59:44.019Z,13.84
2018-04-30T07:02:09.749Z,13.77
2018-04-30T07:04:35.477Z,13.80
2018-04-30T07:07:01.195Z,13.74
2018-04-30T07:09:27.004Z,13.66
2018-04-30T07:11:52.661Z,13.47
2018-04-30T07:14:18.396Z,13.15
2018-04-30T07:16:44.124Z,13.02
2018-04-30T07:19:09.905Z,12.80
2018-04-30T07:21:35.628Z,12.70
2018-04-30T07:24:01.370Z,-141.78
2018-04-30T07:26:27.084Z,-141.78
2018-04-30T07:28:52.817Z,-141.78
2018-04-30T07:31:18.549Z,-141.78
2018-04-30T07:33:44.279Z,-141.78
2018-04-30T07:36:10.000Z,-141.78
2018-04-30T07:38:35.742Z,-141.78
2018-04-30T07:41:01.477Z,-141.78
2018-04-30T07:43:27.204Z,-141.78
2018-04-30T07:45:52.937Z,-141.78
2018-04-30T07:48:18.657Z,-141.78
2018-04-30T07:50:44.403Z,-141.78
2018-04-30T07:53:10.120Z,-141.78
2018-04-30T07:55:35.855Z,-141.78
2018-04-30T07:58:01.592Z,-141.78
2018-04-30T08:00:27.315Z,-141.78
2018-04-30T08:02:53.040Z,-141.78
2018-04-30T08:05:18.780Z,-141.78
2018-04-30T08:07:44.563Z,-141.78
2018-04-30T08:10:10.304Z,-141.78
2018-04-30T08:12:36.021Z,-141.78
2018-04-30T08:15:01.759Z,-141.78
2018-04-30T08:17:27.484Z,-141.78
2018-04-30T08:19:53.216Z,-141.78
2018-04-30T08:22:18.943Z,-141.78
2018-04-30T08:24:44.695Z,-141.78
2018-04-30T08:27:10.403Z,-141.78
2018-04-30T08:29:36.159Z,-141.78
2018-04-30T08:32:01.897Z,-141.78
2018-04-30T08:34:27.632Z,-141.78
2018-04-30T08:36:53.348Z,-141.78
2018-04-30T08:39:19.080Z,-141.78
2018-04-30T08:41:44.861Z,-141.78
2018-04-30T08:44:10.614Z,-141.78
2018-04-30T08:46:36.344Z,-141.78
2018-04-30T08:49:02.073Z,-141.78
2018-04-30T08:51:27.812Z,-141.78
2018-04-30T08:53:53.528Z,-141.78
2018-04-30T08:56:19.273Z,-141.78
2018-04-30T08:58:45.000Z,-141.78
2018-04-30T09:01:10.731Z,-141.78
2018-04-30T09:03:36.444Z,-141.78
2018-04-30T09:06:02.178Z,-141.78
2018-04-30T09:08:27.897Z,-141.78
2018-04-30T09:10:53.638Z,-141.78
2018-04-30T09:13:19.355Z,-141.78
2018-04-30T09:15:45.084Z,-141.78
2018-04-30T09:18:10.792Z,-141.78
2018-04-30T09:20:36.518Z,-141.78
2018-04-30T09:23:02.241Z,-141.78
2018-04-30T09:25:27.981Z,-141.78
2018-04-30T09:27:53.705Z,-141.78
2018-04-30T09:30:19.449Z,-141.78
2018-04-30T09:32:45.163Z,-141.78
2018-04-30T09:35:10.891Z,-141.78
2018-04-30T09:37:36.603Z,-141.78
2018-04-30T09:40:02.340Z,-141.78
2018-04-30T09:42:28.065Z,-141.78
2018-04-30T09:44:53.800Z,-141.78
2018-04-30T09:47:19.520Z,-141.78
2018-04-30T09:49:45.235Z,-141.78
2018-04-30T09:52:10.960Z,-141.78
2018-04-30T09:54:36.676Z,-141.78
2018-04-30T09:57:02.427Z,-141.78
2018-04-30T09:59:28.144Z,-141.78
2018-04-30T10:01:53.920Z,-141.78
2018-04-30T10:04:19.612Z,-141.78
2018-04-30T10:06:45.348Z,-141.78
2018-04-30T10:09:11.068Z,-141.78
2018-04-30T10:11:36.797Z,-141.78
2018-04-30T10:14:02.525Z,-141.78
2018-04-30T10:16:28.256Z,-141.78
2018-04-30T10:18:53.988Z,-141.78
2018-04-30T10:21:19.729Z,-141.78
2018-04-30T10:23:45.526Z,-141.78
2018-04-30T10:26:11.208Z,-141.78
2018-04-30T10:28:36.988Z,-141.78
2018-04-30T10:31:02.681Z,-141.78
2018-04-30T10:33:28.403Z,-141.78
2018-04-30T10:35:54.132Z,-141.78
2018-04-30T10:38:19.868Z,-141.78
2018-04-30T10:40:45.608Z,-141.78
2018-04-30T10:43:11.327Z,-141.78
2018-04-30T10:45:37.058Z,-141.78
2018-04-30T10:48:02.799Z,-141.78
2018-04-30T10:50:28.532Z,-141.78
2018-04-30T10:52:54.263Z,-141.78
2018-04-30T10:55:19.988Z,-141.78
2018-04-30T10:57:45.741Z,-141.78
2018-04-30T11:00:11.462Z,-141.78
2018-04-30T11:02:37.199Z,-141.78
2018-04-30T11:05:02.922Z,-141.78
2018-04-30T11:07:28.651Z,-141.78
2018-04-30T11:09:54.384Z,-141.78
2018-04-30T11:12:20.186Z,-141.78
2018-04-30T11:14:45.865Z,-141.78
2018-04-30T11:17:11.609Z,-141.78
2018-04-30T11:19:37.332Z,-141.78
2018-04-30T11:22:03.077Z,-141.78
2018-04-30T11:24:28.810Z,-141.78
2018-04-30T11:26:54.557Z,-141.78
2018-04-30T11:29:20.277Z,-141.78
2018-04-30T11:31:46.008Z,-141.78
2018-04-30T11:34:11.810Z,-141.78
2018-04-30T11:36:37.469Z,-141.78
2018-04-30T11:39:03.217Z,-141.78
2018-04-30T11:41:28.945Z,-141.78
2018-04-30T11:43:54.676Z,-141.78
2018-04-30T11:46:20.419Z,-141.78
2018-04-30T11:48:46.153Z,-141.78
2018-04-30T11:51:11.888Z,-141.78
2018-04-30T11:53:37.636Z,-141.78
2018-04-30T11:56:03.403Z,-141.78
2018-04-30T11:58:29.141Z,-141.78
2018-04-30T12:00:54.878Z,-141.78
2018-04-30T12:03:20.611Z,-141.78
2018-04-30T12:05:46.352Z,-141.78
2018-04-30T12:08:12.088Z,-141.78
2018-04-30T12:10:37.813Z,-141.78
2018-04-30T12:13:03.552Z,-141.78
2018-04-30T12:15:29.285Z,-141.78
2018-04-30T12:17:55.031Z,-141.78
2018-04-30T12:20:20.760Z,-141.78
2018-04-30T12:22:46.500Z,-141.78
2018-04-30T12:25:12.220Z,-141.78
2018-04-30T12:27:37.968Z,-141.78
2018-04-30T12:30:03.708Z,-141.78
2018-04-30T12:32:29.443Z,-141.78
2018-04-30T12:34:55.182Z,-141.78
2018-04-30T12:37:20.928Z,-141.78
2018-04-30T12:39:46.655Z,-141.78
2018-04-30T12:42:12.399Z,-141.78
2018-04-30T12:44:38.142Z,-141.78
2018-04-30T12:47:03.872Z,-141.78
2018-04-30T12:49:29.705Z,-141.78
2018-04-30T12:51:55.360Z,-141.78
2018-04-30T12:54:21.089Z,-141.78
2018-04-30T12:56:46.840Z,-141.78
2018-04-30T12:59:12.557Z,-141.78
2018-04-30T13:01:38.280Z,-141.78
2018-04-30T13:05:54.937Z,14.95
2018-04-30T13:08:20.671Z,14.80
2018-04-30T13:10:46.389Z,14.68
2018-04-30T13:13:12.117Z,14.63
2018-04-30T13:15:37.840Z,14.57
2018-04-30T13:18:03.580Z,14.49
2018-04-30T13:20:29.292Z,14.48
2018-04-30T13:22:55.032Z,14.43
2018-04-30T13:25:20.753Z,14.52
2018-04-30T13:27:46.509Z,14.48
2018-04-30T13:30:12.229Z,14.36
2018-04-30T13:32:37.964Z,14.25
2018-04-30T13:35:03.672Z,14.21
2018-04-30T13:37:29.387Z,14.09
2018-04-30T13:39:55.160Z,13.96
2018-04-30T13:42:20.876Z,13.94
2018-04-30T13:44:46.599Z,13.81
2018-04-30T13:47:12.334Z,13.69
2018-04-30T13:49:38.062Z,13.65
2018-04-30T13:52:03.808Z,13.64
2018-04-30T13:54:29.531Z,13.57
2018-04-30T13:56:55.264Z,13.59
2018-04-30T13:59:20.991Z,13.60
2018-04-30T14:01:46.717Z,13.54
2018-04-30T14:04:12.447Z,13.48
2018-04-30T14:06:38.159Z,13.49
2018-04-30T14:09:04.801Z,13.41
2018-04-30T14:11:30.524Z,13.43
2018-04-30T14:13:56.242Z,13.42
2018-04-30T14:16:21.956Z,13.35
2018-04-30T14:18:47.689Z,13.36
2018-04-30T14:21:13.408Z,13.28
2018-04-30T14:23:39.133Z,13.22
2018-04-30T14:26:04.854Z,13.21
2018-04-30T14:28:30.590Z,13.08
2018-04-30T14:30:56.299Z,13.05
2018-04-30T14:33:22.036Z,13.01
2018-04-30T14:35:47.744Z,13.11
2018-04-30T14:38:13.468Z,13.21
2018-04-30T14:40:39.186Z,13.41
2018-04-30T14:43:04.935Z,13.41
2018-04-30T14:45:30.681Z,13.43
2018-04-30T14:47:56.406Z,13.42
2018-04-30T14:50:22.132Z,13.31
2018-04-30T14:52:47.852Z,13.24
2018-04-30T14:55:13.577Z,13.30
2018-04-30T14:57:39.304Z,13.35
2018-04-30T15:00:05.026Z,13.38
2018-04-30T15:02:30.836Z,13.51
2018-04-30T15:04:56.491Z,13.63
2018-04-30T15:07:22.220Z,13.86
2018-04-30T15:09:47.947Z,13.74
2018-04-30T15:12:13.661Z,13.76
2018-04-30T15:14:39.387Z,13.69
2018-04-30T15:17:05.123Z,13.70
2018-04-30T15:19:30.887Z,13.37
2018-04-30T15:21:56.568Z,13.28
2018-04-30T15:24:22.300Z,13.26
2018-04-30T15:26:48.026Z,13.32
2018-04-30T15:29:13.763Z,13.38
2018-04-30T15:31:39.483Z,13.31
2018-04-30T15:34:05.224Z,13.64
2018-04-30T15:36:30.935Z,13.82
2018-04-30T15:38:56.656Z,13.92
2018-04-30T15:41:22.376Z,13.93
2018-04-30T15:43:48.129Z,14.31
2018-04-30T15:46:13.861Z,14.24
2018-04-30T15:48:39.686Z,14.19
2018-04-30T15:51:05.343Z,14.08
2018-04-30T15:53:31.078Z,14.08
2018-04-30T15:55:56.813Z,14.19
2018-04-30T15:58:22.560Z,14.18
2018-04-30T16:00:48.280Z,14.11
2018-04-30T16:03:14.021Z,14.18
2018-04-30T16:05:39.747Z,14.36
2018-04-30T16:08:05.501Z,14.36
2018-04-30T16:10:31.227Z,14.40
2018-04-30T16:12:56.950Z,14.16
2018-04-30T16:15:22.677Z,14.19
2018-04-30T16:17:48.399Z,14.20
2018-04-30T16:20:14.182Z,14.13
2018-04-30T16:22:39.847Z,14.17
2018-04-30T16:25:05.580Z,14.12
2018-04-30T16:27:31.305Z,14.10
2018-04-30T16:29:57.044Z,14.24
2018-04-30T16:32:22.775Z,14.35
2018-04-30T16:34:48.504Z,14.40
2018-04-30T16:37:14.229Z,14.44
2018-04-30T16:39:39.962Z,14.39
2018-04-30T16:42:05.693Z,14.41
2018-04-30T16:44:31.424Z,14.29
2018-04-30T16:46:57.216Z,14.43
2018-04-30T16:49:22.868Z,14.49
2018-04-30T16:51:48.594Z,14.38
2018-04-30T16:54:14.324Z,14.47
2018-04-30T16:56:40.048Z,14.48
2018-04-30T16:59:05.780Z,14.53
2018-04-30T17:01:31.488Z,14.59
2018-04-30T17:03:57.219Z,14.66
2018-04-30T17:06:22.934Z,14.58
2018-04-30T17:08:48.680Z,14.71
2018-04-30T17:11:14.400Z,14.90
2018-04-30T17:13:40.157Z,14.67
2018-04-30T17:16:05.906Z,14.57
2018-04-30T17:18:31.650Z,14.41
2018-04-30T17:20:57.377Z,14.50
2018-04-30T17:23:23.114Z,14.49
2018-04-30T17:25:48.860Z,14.53
2018-04-30T17:28:14.590Z,14.45
2018-04-30T17:30:40.337Z,14.47
2018-04-30T17:33:06.065Z,14.44
2018-04-30T17:35:31.798Z,14.40
2018-04-30T17:37:57.530Z,14.42
2018-04-30T17:40:23.260Z,14.46
2018-04-30T17:42:48.977Z,14.40
2018-04-30T17:45:14.697Z,14.41
2018-04-30T17:47:40.407Z,14.37
2018-04-30T17:50:06.156Z,14.57
2018-04-30T17:52:31.897Z,14.55
2018-04-30T17:54:57.626Z,14.58
2018-04-30T17:57:25.084Z,14.61
2018-04-30T17:59:50.919Z,14.46
2018-04-30T18:02:16.648Z,14.38
2018-04-30T18:04:42.384Z,14.57
2018-04-30T18:07:08.395Z,14.43
2018-04-30T18:09:34.562Z,14.34
2018-04-30T18:12:00.324Z,14.24
2018-04-30T18:14:26.063Z,14.30
2018-04-30T18:16:51.793Z,14.35
2018-04-30T18:19:17.523Z,14.36
2018-04-30T18:21:43.255Z,14.33
2018-04-30T18:24:08.986Z,14.22
2018-04-30T18:26:34.806Z,14.08
2018-04-30T18:29:00.446Z,14.03
2018-04-30T18:31:26.176Z,14.03
2018-04-30T18:33:51.902Z,14.16
2018-04-30T18:36:17.653Z,14.20
2018-04-30T18:38:43.450Z,14.18
2018-04-30T18:41:09.132Z,14.16
2018-04-30T18:43:34.844Z,14.02
2018-04-30T18:46:00.589Z,14.01
2018-04-30T18:48:26.301Z,13.84
2018-04-30T18:50:52.031Z,13.93
2018-04-30T18:53:17.757Z,13.87
2018-04-30T18:55:43.492Z,13.75
2018-04-30T18:58:09.216Z,13.77
2018-04-30T19:00:34.945Z,13.86
2018-04-30T19:03:00.665Z,13.80
2018-04-30T19:05:26.391Z,13.76
2018-04-30T19:07:52.117Z,13.79
2018-04-30T19:10:17.852Z,13.64
2018-04-30T19:12:43.564Z,13.60
2018-04-30T19:15:09.289Z,13.70
2018-04-30T19:17:35.014Z,13.57
2018-04-30T19:20:00.745Z,13.58
2018-04-30T19:22:26.756Z,13.61
2018-04-30T19:24:52.479Z,13.50
2018-04-30T19:27:18.197Z,13.56
2018-04-30T19:29:43.929Z,13.60
2018-04-30T19:32:09.661Z,13.54
2018-04-30T19:34:35.375Z,13.60
2018-04-30T19:37:01.108Z,13.56
2018-04-30T19:39:26.825Z,13.49
2018-04-30T19:41:52.552Z,13.46
2018-04-30T19:44:18.279Z,13.40
2018-04-30T19:46:44.073Z,13.33
2018-04-30T19:49:09.736Z,13.35
2018-04-30T19:51:35.456Z,13.37
2018-04-30T19:54:01.167Z,13.34
2018-04-30T19:56:26.901Z,13.33
2018-04-30T19:58:52.620Z,13.44
2018-04-30T20:01:18.355Z,13.42
2018-04-30T20:03:44.069Z,13.49
2018-04-30T20:06:09.788Z,13.40
2018-04-30T20:08:35.512Z,13.32
2018-04-30T20:11:01.247Z,13.23
2018-04-30T20:13:26.986Z,13.17
2018-04-30T20:15:52.713Z,13.10
2018-04-30T20:18:18.413Z,13.01
2018-04-30T20:20:44.140Z,12.93
2018-04-30T20:23:09.863Z,12.85
2018-04-30T20:25:35.592Z,12.71
2018-04-30T20:28:01.309Z,12.72
2018-04-30T20:30:27.048Z,12.66
2018-04-30T20:32:52.768Z,12.65
2018-04-30T20:35:18.500Z,12.67
2018-04-30T20:37:44.233Z,12.72
2018-04-30T20:40:09.949Z,12.68
2018-04-30T20:42:35.676Z,12.50
2018-04-30T20:45:01.389Z,12.29
2018-04-30T20:47:27.113Z,12.16
2018-04-30T20:49:52.834Z,12.09
2018-04-30T20:52:18.560Z,12.08
2018-04-30T20:54:44.281Z,12.04
2018-04-30T20:57:10.004Z,12.06
2018-04-30T20:59:35.717Z,11.86
2018-04-30T21:02:01.444Z,11.76
2018-04-30T21:04:27.212Z,11.65
2018-04-30T21:06:52.936Z,11.51
2018-04-30T21:09:18.647Z,11.52
2018-04-30T21:11:44.380Z,11.65
2018-04-30T21:14:10.083Z,11.53
2018-04-30T21:16:35.823Z,11.46
2018-04-30T21:19:01.531Z,11.19
2018-04-30T21:21:27.261Z,11.27
2018-04-30T21:23:52.984Z,11.24
2018-04-30T21:26:18.715Z,11.24
2018-04-30T21:28:44.435Z,11.22
2018-04-30T21:31:10.154Z,11.14
2018-04-30T21:33:35.879Z,11.07
2018-04-30T21:36:01.600Z,11.08
2018-04-30T21:38:27.323Z,10.94
2018-04-30T21:40:53.044Z,10.90
2018-04-30T21:43:18.764Z,10.69
2018-04-30T21:45:44.480Z,10.64
2018-04-30T21:48:10.212Z,10.45
2018-04-30T21:50:35.921Z,10.35
2018-04-30T21:53:01.640Z,10.53
2018-04-30T21:55:27.360Z,10.31
2018-04-30T21:57:53.098Z,10.32
2018-04-30T22:00:18.855Z,10.25
2018-04-30T22:02:44.596Z,10.09
2018-04-30T22:05:10.316Z,10.11
2018-04-30T22:07:36.048Z,9.89
2018-04-30T22:10:01.774Z,10.04
2018-04-30T22:12:27.504Z,10.08
2018-04-30T22:14:53.228Z,10.17
2018-04-30T22:17:18.957Z,10.14
2018-04-30T22:19:44.673Z,10.17
2018-04-30T22:22:10.436Z,10.12
2018-04-30T22:24:36.139Z,9.94
2018-04-30T22:27:01.881Z,10.06
2018-04-30T22:29:27.603Z,10.06
2018-04-30T22:31:53.328Z,10.08
2018-04-30T22:34:19.053Z,10.08
2018-04-30T22:36:44.804Z,10.20
2018-04-30T22:39:10.519Z,10.22
2018-04-30T22:41:36.241Z,10.16
2018-04-30T22:44:02.000Z,10.23
2018-04-30T22:46:27.704Z,10.18
2018-04-30T22:48:53.444Z,10.13
2018-04-30T22:51:19.164Z,10.12
2018-04-30T22:53:44.908Z,10.24
2018-04-30T22:56:10.633Z,10.32
2018-04-30T22:58:36.375Z,10.47
2018-04-30T23:01:02.097Z,10.45
2018-04-30T23:03:27.832Z,10.41
2018-04-30T23:05:53.568Z,10.42
2018-04-30T23:08:19.291Z,10.47
2018-04-30T23:10:45.005Z,10.71
2018-04-30T23:13:10.736Z,10.74
2018-04-30T23:15:36.453Z,10.71
2018-04-30T23:18:02.175Z,10.66
2018-04-30T23:20:27.889Z,10.82
2018-04-30T23:22:53.657Z,10.93
2018-04-30T23:25:20.351Z,10.85
2018-04-30T23:27:46.084Z,10.90
2018-04-30T23:30:11.788Z,10.94
2018-04-30T23:32:37.508Z,10.92
2018-04-30T23:35:03.224Z,10.78
2018-04-30T23:37:28.949Z,10.70
2018-04-30T23:39:54.665Z,10.64
2018-04-30T23:42:20.708Z,10.64
2018-04-30T23:44:46.436Z,10.57
2018-04-30T23:47:12.163Z,10.58
2018-04-30T23:49:37.896Z,10.56
2018-04-30T23:52:03.619Z,10.35
2018-04-30T23:54:29.331Z,10.26
2018-04-30T23:56:55.069Z,10.13
2018-04-30T23:59:21.490Z,10.10
